EDT,Max TemperatureF,Mean TemperatureF,Min TemperatureF,Max Dew PointF,MeanDew PointF,Min DewpointF,Max Humidity, Mean Humidity, Min Humidity, Max Sea Level PressureIn, Mean Sea Level PressureIn, Min Sea Level PressureIn, Max VisibilityMiles, Mean VisibilityMiles, Min VisibilityMiles, Max Wind SpeedMPH, Mean Wind SpeedMPH, Max Gust SpeedMPH,PrecipitationIn, CloudCover, Events, WindDirDegrees
2013-7-1,69,66,62,62,60,57,90,83,76,29.99,29.92,29.86,10,9,5,21,12,26,T,7,,49
2013-7-2,78,69,60,68,63,57,97,86,74,30.03,29.98,29.95,10,5,1,15,6,26,0.63,7,Rain-Thunderstorm,49
2013-7-3,80,71,62,65,63,61,93,74,54,30.09,30.05,30.00,10,8,2,17,6,23,0.00,2,,191
2013-7-4,78,71,63,66,65,62,100,82,64,30.17,30.11,30.07,10,6,2,10,3,14,T,2,Rain,151
2013-7-5,80,73,66,67,65,64,100,81,62,30.16,30.10,30.06,10,8,2,10,4,14,0.00,5,,196
2013-7-6,74,71,68,68,67,64,97,88,79,30.13,30.08,30.02,10,8,1,13,5,17,0.37,7,Rain,199
2013-7-7,80,73,65,68,66,64,93,80,67,30.11,30.06,30.01,10,9,4,10,6,15,0.00,4,,214
2013-7-8,84,77,70,71,68,65,84,75,65,30.09,30.05,30.00,10,10,7,16,8,22,T,3,,233
2013-7-9,87,81,74,74,71,69,82,72,61,30.03,29.99,29.94,10,10,9,16,9,22,0.00,1,,233
2013-7-10,85,76,66,75,70,63,87,77,67,29.99,29.90,29.81,10,9,2,35,9,47,0.18,4,Rain-Thunderstorm,265
2013-7-11,78,68,58,60,57,55,93,70,47,30.05,30.02,29.96,10,10,7,18,7,22,0.00,2,,18
2013-7-12,79,67,54,60,57,54,93,71,48,30.12,30.09,30.05,10,10,8,17,5,22,0.00,0,,43
2013-7-13,84,71,58,64,61,57,93,72,51,30.15,30.11,30.09,10,10,6,15,6,21,0.00,1,,82
2013-7-14,89,76,63,72,67,62,93,74,55,30.20,30.17,30.14,10,9,3,12,5,15,0.00,1,,107
2013-7-15,89,81,72,72,69,66,93,72,50,30.29,30.25,30.21,10,10,10,13,5,22,0.00,1,,192
2013-7-16,91,80,69,74,71,67,97,75,52,30.33,30.29,30.26,10,10,10,7,2,17,0.00,2,,24
2013-7-17,91,81,70,73,71,68,93,72,50,30.33,30.27,30.19,10,8,1,10,3,14,0.00,0,,333
2013-7-18,92,82,71,73,71,69,93,71,49,30.20,30.12,30.01,10,10,6,10,3,17,0.00,1,,272
2013-7-19,92,84,76,73,71,68,87,67,47,30.03,29.94,29.84,10,9,5,20,9,24,0.00,0,,240
2013-7-20,81,75,69,72,69,64,97,86,74,29.94,29.88,29.81,10,9,1,26,6,36,0.27,3,Rain-Thunderstorm,243
2013-7-21,85,75,65,69,67,64,97,74,51,29.99,29.94,29.87,10,6,2,9,3,17,0.00,2,,129
2013-7-22,81,74,67,70,68,64,93,80,67,29.88,29.83,29.77,10,9,3,13,4,24,0.11,6,Rain-Thunderstorm,78
2013-7-23,86,72,58,70,66,55,90,73,55,29.87,29.78,29.73,10,9,6,20,10,25,0.00,1,,280
2013-7-24,73,63,53,55,53,50,89,69,49,30.03,29.96,29.87,10,10,10,15,7,22,0.00,2,,29
2013-7-25,77,63,49,56,52,48,93,70,46,30.11,30.08,30.03,10,9,2,13,3,16,0.00,0,,71
2013-7-26,80,67,53,58,55,51,93,69,45,30.10,30.03,29.93,10,10,8,15,6,28,T,2,Rain,207
2013-7-27,77,66,55,64,59,50,93,70,46,29.93,29.87,29.82,10,8,2,20,9,28,0.07,5,Rain,242
2013-7-28,72,62,51,53,49,46,93,69,44,30.03,29.96,29.91,10,10,10,21,9,29,0.00,4,,258
2013-7-29,77,67,56,57,53,51,87,67,46,30.18,30.12,30.04,10,10,10,15,5,21,0.00,3,,277
2013-7-30,78,66,53,63,57,52,93,72,50,30.21,30.17,30.11,10,10,10,9,4,13,0.00,2,,173
2013-7-31,73,70,66,69,66,60,97,85,73,30.10,30.02,29.93,10,5,1,10,4,13,0.19,8,Rain,209